Time;durP1;ratioP1;P1;durP2;ratioP2;P2;SDS_P1;SDS_P2;PMS_P1;PMS_P2;Temp;Humidity;BMP_temperature;BMP_pressure;BME280_temperature;BME280_humidity;BME280_pressure;Samples;Min_cycle;Max_cycle;Signal;HPM_P1;HPM_P2
2021/08/01 00:00:36;;;;;;;11.80;4.07;;;;;;;28.98;42.57;97396.22;5033100;28;20203;-67
2021/08/01 00:03:03;;;;;;;4.37;2.60;;;;;;;28.95;43.12;97383.13;5030508;28;20227;-67
2021/08/01 00:05:30;;;;;;;4.70;2.83;;;;;;;28.71;44.58;97377.47;5033861;28;20210;-68
2021/08/01 00:07:57;;;;;;;6.00;2.83;;;;;;;28.66;45.77;97374.91;5033290;28;20199;-67
2021/08/01 00:10:25;;;;;;;6.43;3.07;;;;;;;28.70;45.64;97372.28;5032702;28;20204;-67
2021/08/01 00:12:52;;;;;;;4.77;3.00;;;;;;;28.42;45.73;97368.41;5030027;28;20225;-67
2021/08/01 00:15:21;;;;;;;5.73;3.60;;;;;;;28.81;45.67;97366.09;5032888;28;20289;-67
2021/08/01 00:17:48;;;;;;;8.37;3.40;;;;;;;28.06;47.52;97371.59;5033833;28;20659;-67
2021/08/01 00:20:15;;;;;;;6.50;3.33;;;;;;;28.45;46.67;97371.31;5034607;28;20280;-67
2021/08/01 00:22:42;;;;;;;6.97;3.27;;;;;;;28.43;47.15;97362.56;5034388;28;20280;-69
2021/08/01 00:25:11;;;;;;;9.00;3.87;;;;;;;28.38;47.59;97359.19;5035754;28;20206;-67
2021/08/01 00:27:38;;;;;;;4.83;3.40;;;;;;;28.32;46.53;97366.03;5033464;28;20674;-67
2021/08/01 00:30:07;;;;;;;6.27;3.97;;;;;;;28.44;46.17;97349.66;5034744;28;20234;-67
2021/08/01 00:32:36;;;;;;;4.90;3.73;;;;;;;28.70;46.11;97345.63;5033289;28;20772;-67
2021/08/01 00:35:05;;;;;;;5.90;4.00;;;;;;;29.06;45.20;97342.31;5034256;28;20233;-67
2021/08/01 00:37:32;;;;;;;6.23;4.00;;;;;;;28.88;46.75;97330.63;5040394;28;20212;-67
2021/08/01 00:40:00;;;;;;;6.50;3.70;;;;;;;28.91;45.40;97342.91;5033923;28;20226;-67
2021/08/01 00:42:27;;;;;;;5.97;3.93;;;;;;;29.01;44.60;97342.53;5030669;28;20199;-68
2021/08/01 00:44:54;;;;;;;7.40;3.67;;;;;;;29.44;44.51;97335.50;5031794;28;20226;-67
2021/08/01 00:47:22;;;;;;;8.60;4.20;;;;;;;29.51;44.11;97341.28;5034358;28;20199;-67
2021/08/01 00:49:51;;;;;;;5.63;3.80;;;;;;;29.42;43.91;97334.25;5040873;28;20214;-67
2021/08/01 00:52:18;;;;;;;7.07;3.50;;;;;;;29.41;43.61;97338.97;5034055;28;20231;-67
2021/08/01 00:54:45;;;;;;;8.80;3.93;;;;;;;29.32;44.77;97323.66;5031359;28;20610;-68
2021/08/01 00:57:13;;;;;;;4.13;3.10;;;;;;;29.27;43.55;97337.63;5033659;28;20207;-67
2021/08/01 00:59:41;;;;;;;6.70;3.27;;;;;;;29.22;44.21;97338.63;5032124;28;21104;-67
2021/08/01 01:02:12;;;;;;;4.70;3.40;;;;;;;29.14;44.30;97345.00;5035819;28;20201;-67
2021/08/01 01:04:46;;;;;;;4.60;3.00;;;;;;;29.08;44.60;97351.06;5032578;28;20232;-67
2021/08/01 01:07:18;;;;;;;8.33;3.60;;;;;;;29.49;43.99;97335.31;5030757;28;20203;-67
2021/08/01 01:09:51;;;;;;;4.10;3.33;;;;;;;29.43;43.27;97335.84;5030800;28;20211;-67
2021/08/01 01:12:21;;;;;;;9.00;4.00;;;;;;;29.28;44.83;97336.47;5033400;28;20226;-67
2021/08/01 01:14:50;;;;;;;9.23;3.90;;;;;;;29.30;44.11;97337.75;5031760;28;20228;-67
2021/08/01 01:17:22;;;;;;;5.17;3.27;;;;;;;29.70;43.45;97336.09;5034823;28;20209;-67
2021/08/01 01:20:18;;;;;;;7.33;3.50;;;;;;;28.73;45.62;97333.19;5032965;28;20261;-67
2021/08/01 01:22:52;;;;;;;9.80;3.60;;;;;;;29.19;44.05;97333.81;5031597;28;20205;-69
2021/08/01 01:25:23;;;;;;;4.97;3.47;;;;;;;29.77;42.39;97336.34;5032491;28;20753;-67
2021/08/01 01:27:54;;;;;;;4.20;3.40;;;;;;;29.95;42.72;97339.72;5029730;28;20223;-67
2021/08/01 01:30:21;;;;;;;5.00;3.37;;;;;;;30.19;42.37;97337.00;5037908;28;20580;-67
2021/08/01 01:32:55;;;;;;;5.80;3.27;;;;;;;29.91;42.26;97345.09;5032989;28;20229;-67
2021/08/01 01:35:22;;;;;;;7.07;3.37;;;;;;;29.71;42.56;97345.16;5032896;28;20204;-67
2021/08/01 01:37:52;;;;;;;5.07;3.07;;;;;;;29.83;41.91;97339.66;5032700;28;20206;-67
2021/08/01 01:40:21;;;;;;;4.27;3.50;;;;;;;29.49;42.50;97340.03;5035895;28;20565;-67
2021/08/01 01:42:49;;;;;;;7.50;3.27;;;;;;;29.90;41.54;97334.44;5031572;28;20207;-67
2021/08/01 01:45:18;;;;;;;6.07;3.10;;;;;;;29.63;42.41;97341.34;5051625;22;20226;-70
2021/08/01 01:47:46;;;;;;;6.87;3.33;;;;;;;29.70;42.31;97335.31;5031774;28;20210;-69
2021/08/01 01:50:16;;;;;;;5.50;3.53;;;;;;;29.55;42.08;97344.19;5035038;28;20206;-69
2021/08/01 01:52:47;;;;;;;7.67;3.20;;;;;;;29.44;42.50;97337.47;5031373;28;20229;-69
2021/08/01 01:55:16;;;;;;;6.43;3.20;;;;;;;29.31;42.95;97330.31;5031652;28;20309;-70
2021/08/01 01:57:44;;;;;;;6.20;3.07;;;;;;;29.39;43.00;97326.69;5030831;28;20210;-69
2021/08/01 02:00:12;;;;;;;4.57;3.07;;;;;;;28.87;44.24;97337.28;5024361;28;20200;-69
2021/08/01 02:02:39;;;;;;;5.03;3.10;;;;;;;28.58;46.12;97328.28;5028626;28;20206;-69
2021/08/01 02:05:09;;;;;;;4.60;3.33;;;;;;;28.53;46.60;97322.97;5027838;28;20232;-69
2021/08/01 02:07:38;;;;;;;7.27;3.67;;;;;;;28.31;47.99;97318.53;5031491;28;20203;-69
2021/08/01 02:10:10;;;;;;;8.20;3.83;;;;;;;28.49;47.63;97322.03;5030188;28;20198;-70
2021/08/01 02:12:43;;;;;;;5.10;4.03;;;;;;;28.89;49.74;97328.69;5032328;28;20309;-70
2021/08/01 02:15:14;;;;;;;5.10;3.73;;;;;;;27.89;50.45;97324.22;5029253;28;20226;-69
2021/08/01 02:17:47;;;;;;;7.27;4.37;;;;;;;28.61;49.41;97316.59;5039625;28;20213;-70
2021/08/01 02:20:17;;;;;;;6.33;4.33;;;;;;;28.57;50.90;97316.47;5031046;28;20207;-71
2021/08/01 02:22:46;;;;;;;6.70;4.03;;;;;;;28.96;49.42;97315.22;5031855;28;20299;-69
2021/08/01 02:25:14;;;;;;;6.37;4.27;;;;;;;29.31;48.20;97313.81;5024072;28;20430;-69
2021/08/01 02:27:44;;;;;;;6.47;4.50;;;;;;;28.07;52.12;97315.59;5031024;28;20202;-69
2021/08/01 02:30:13;;;;;;;9.03;4.70;;;;;;;29.31;48.20;97316.56;5029913;28;20199;-69
2021/08/01 02:32:40;;;;;;;7.73;4.60;;;;;;;28.78;50.10;97308.28;5036649;28;20224;-69
2021/08/01 02:35:09;;;;;;;9.13;4.93;;;;;;;28.26;50.50;97307.75;5031100;28;20229;-70
2021/08/01 02:37:37;;;;;;;8.30;4.93;;;;;;;27.86;50.96;97308.41;5030724;28;20203;-69
2021/08/01 02:40:05;;;;;;;8.40;4.73;;;;;;;28.22;51.04;97311.50;5029944;28;20203;-69
2021/08/01 02:42:33;;;;;;;9.30;4.97;;;;;;;28.61;50.21;97305.63;5031047;28;20200;-69
2021/08/01 02:45:03;;;;;;;10.63;5.33;;;;;;;28.06;50.43;97313.16;5029878;28;20237;-69
2021/08/01 02:47:32;;;;;;;9.87;5.13;;;;;;;28.70;49.40;97311.88;5028521;28;20199;-70
2021/08/01 02:50:01;;;;;;;9.10;4.80;;;;;;;29.04;48.11;97311.66;5028467;28;20253;-69
2021/08/01 02:52:31;;;;;;;6.30;4.50;;;;;;;28.38;50.07;97318.03;5030788;28;20226;-69
2021/08/01 02:55:00;;;;;;;8.80;5.10;;;;;;;27.99;51.17;97319.19;5030264;28;20218;-69
2021/08/01 02:57:30;;;;;;;8.63;4.77;;;;;;;27.84;51.87;97314.25;5023386;28;20206;-69
2021/08/01 03:00:01;;;;;;;11.53;4.93;;;;;;;27.93;51.93;97312.25;5030587;28;20206;-69
2021/08/01 03:02:28;;;;;;;7.30;4.30;;;;;;;28.43;50.24;97317.88;5031054;28;20203;-69
2021/08/01 03:04:55;;;;;;;9.90;4.90;;;;;;;28.83;49.45;97308.06;5031827;28;20230;-69
2021/08/01 03:07:23;;;;;;;9.40;5.23;;;;;;;28.98;48.85;97323.97;5030605;28;20205;-69
2021/08/01 03:09:52;;;;;;;6.60;5.00;;;;;;;29.15;48.39;97315.59;5026409;28;20655;-70
2021/08/01 03:12:20;;;;;;;8.23;5.00;;;;;;;29.04;47.89;97322.63;5030704;28;20226;-69
2021/08/01 03:14:47;;;;;;;9.63;4.80;;;;;;;29.04;46.84;97319.88;5030322;28;20226;-69
2021/08/01 03:17:16;;;;;;;9.80;4.57;;;;;;;29.50;45.97;97325.91;5029891;28;20207;-69
2021/08/01 03:19:43;;;;;;;8.23;4.80;;;;;;;29.32;46.80;97326.41;5030448;28;20775;-69
2021/08/01 03:22:10;;;;;;;8.23;4.90;;;;;;;28.91;46.89;97334.66;5030925;28;20234;-69
2021/08/01 03:24:38;;;;;;;7.40;4.67;;;;;;;29.11;47.38;97325.63;5030675;28;20199;-69
2021/08/01 03:27:06;;;;;;;10.87;5.13;;;;;;;29.19;47.60;97328.31;5030465;28;20476;-69
2021/08/01 03:29:33;;;;;;;7.43;4.40;;;;;;;29.42;44.96;97339.75;5030961;28;20198;-69
2021/08/01 03:32:00;;;;;;;9.50;4.83;;;;;;;29.35;45.98;97326.53;5031923;28;20213;-68
2021/08/01 03:34:29;;;;;;;7.83;4.53;;;;;;;28.89;48.31;97332.22;5034635;28;20204;-70
2021/08/01 03:36:57;;;;;;;8.17;4.80;;;;;;;28.40;48.99;97335.00;5028379;28;20204;-68
2021/08/01 03:39:24;;;;;;;6.10;4.37;;;;;;;29.11;46.42;97340.19;5027665;28;20298;-69
2021/08/01 03:41:51;;;;;;;9.87;4.73;;;;;;;29.40;47.02;97336.53;5031559;28;20210;-69
2021/08/01 03:44:18;;;;;;;8.33;4.83;;;;;;;29.34;47.36;97340.66;5030914;28;20205;-69
2021/08/01 03:46:46;;;;;;;5.10;4.10;;;;;;;29.60;45.57;97347.50;5028283;28;20910;-70
2021/08/01 03:49:13;;;;;;;13.33;5.10;;;;;;;28.81;47.30;97335.88;5030611;28;20302;-69
2021/08/01 03:51:41;;;;;;;7.83;4.57;;;;;;;29.88;45.64;97343.03;5032632;28;20689;-69
2021/08/01 03:54:09;;;;;;;6.93;5.07;;;;;;;28.95;47.61;97339.16;5033850;28;20222;-69
2021/08/01 03:56:40;;;;;;;9.33;5.07;;;;;;;29.89;45.48;97346.59;5031820;28;20310;-69
2021/08/01 03:59:07;;;;;;;7.17;4.63;;;;;;;29.37;44.40;97348.19;5033264;28;20211;-69
2021/08/01 04:01:34;;;;;;;6.70;4.77;;;;;;;29.26;45.76;97347.00;5033413;28;20207;-69
2021/08/01 04:04:01;;;;;;;7.17;4.33;;;;;;;29.15;48.32;97343.88;5034310;28;20569;-69
2021/08/01 04:06:29;;;;;;;5.90;4.50;;;;;;;29.40;45.28;97347.53;5033528;28;20222;-69
2021/08/01 04:08:57;;;;;;;9.13;4.57;;;;;;;29.87;45.86;97357.94;5034187;28;20198;-70
2021/08/01 04:11:25;;;;;;;9.30;4.47;;;;;;;29.46;44.92;97351.69;5033725;28;20577;-68
2021/08/01 04:13:52;;;;;;;7.87;4.10;;;;;;;29.53;45.57;97347.25;5033572;28;20565;-68
2021/08/01 04:16:19;;;;;;;7.07;4.50;;;;;;;29.57;45.76;97344.66;5032470;28;20834;-69
2021/08/01 04:18:47;;;;;;;5.50;4.20;;;;;;;29.10;47.22;97346.84;5032639;28;20205;-69
2021/08/01 04:21:15;;;;;;;8.30;4.53;;;;;;;29.76;45.92;97351.25;5033470;28;20407;-69
2021/08/01 04:23:43;;;;;;;6.40;4.50;;;;;;;29.83;45.48;97362.50;5030082;28;20203;-69
2021/08/01 04:26:11;;;;;;;6.90;4.33;;;;;;;28.31;50.65;97354.22;5033834;28;20565;-68
2021/08/01 04:28:40;;;;;;;7.83;4.40;;;;;;;29.58;46.94;97354.50;5031586;28;20198;-68
2021/08/01 04:31:07;;;;;;;8.77;4.50;;;;;;;29.32;46.85;97362.16;5033005;28;20199;-69
2021/08/01 04:33:36;;;;;;;6.40;4.47;;;;;;;29.85;46.13;97367.66;5032555;28;20229;-69
2021/08/01 04:36:03;;;;;;;6.73;4.17;;;;;;;29.48;45.51;97371.38;5033270;28;20223;-69
2021/08/01 04:38:30;;;;;;;6.27;4.37;;;;;;;28.40;50.34;97373.41;5033950;28;20212;-68
2021/08/01 04:40:58;;;;;;;6.63;4.30;;;;;;;29.13;49.03;97370.09;5034146;28;20212;-69
2021/08/01 04:43:26;;;;;;;5.83;4.20;;;;;;;28.85;48.44;97367.03;5033172;28;20204;-70
2021/08/01 04:45:54;;;;;;;7.23;4.73;;;;;;;28.58;50.41;97353.78;5026170;28;20227;-69
2021/08/01 04:48:21;;;;;;;5.43;4.17;;;;;;;28.53;48.10;97362.19;5031886;28;20216;-69
2021/08/01 04:50:48;;;;;;;7.00;4.30;;;;;;;29.22;46.80;97357.88;5033218;28;20210;-69
2021/08/01 04:53:15;;;;;;;6.20;4.00;;;;;;;28.93;48.66;97359.88;5028553;28;20596;-69
2021/08/01 04:55:43;;;;;;;6.93;4.40;;;;;;;30.53;45.15;97372.38;5030989;28;20230;-69
2021/08/01 04:58:10;;;;;;;7.70;4.30;;;;;;;30.14;43.92;97364.75;5032490;28;20886;-69
2021/08/01 05:00:39;;;;;;;6.23;3.97;;;;;;;30.26;44.34;97359.28;5032410;28;20210;-69
2021/08/01 05:03:06;;;;;;;6.83;4.27;;;;;;;30.32;42.95;97364.22;5030008;28;20290;-69
2021/08/01 05:05:37;;;;;;;11.90;4.70;;;;;;;30.72;43.75;97356.91;5030973;28;20233;-69
2021/08/01 05:08:05;;;;;;;9.37;3.97;;;;;;;29.42;45.00;97357.06;5032389;28;20219;-69
2021/08/01 05:10:33;;;;;;;7.77;4.27;;;;;;;30.11;45.62;97348.94;5029835;28;20225;-69
2021/08/01 05:13:00;;;;;;;5.97;3.60;;;;;;;29.94;43.90;97347.16;5030919;28;20238;-70
2021/08/01 05:15:27;;;;;;;5.63;4.63;;;;;;;29.19;46.87;97360.50;5029461;28;20230;-68
2021/08/01 05:17:56;;;;;;;5.07;3.90;;;;;;;29.10;47.91;97346.03;5032461;28;20203;-69
2021/08/01 05:20:23;;;;;;;8.40;4.40;;;;;;;28.46;50.04;97350.94;5023097;28;20215;-69
2021/08/01 05:22:50;;;;;;;5.67;4.47;;;;;;;28.91;49.96;97346.47;5031944;28;20199;-69
2021/08/01 05:25:17;;;;;;;4.60;3.97;;;;;;;28.43;49.07;97354.34;5031706;28;20226;-68
2021/08/01 05:27:45;;;;;;;5.03;3.57;;;;;;;29.04;47.25;97352.88;5031733;28;20207;-69
2021/08/01 05:30:12;;;;;;;4.73;3.77;;;;;;;28.97;48.12;97356.13;5032045;28;20672;-68
2021/08/01 05:32:40;;;;;;;7.00;4.20;;;;;;;29.29;46.68;97354.59;5032213;28;20663;-68
2021/08/01 05:35:09;;;;;;;7.73;4.23;;;;;;;28.98;47.17;97368.72;5031470;28;20696;-69
2021/08/01 05:37:37;;;;;;;7.40;3.77;;;;;;;29.05;46.68;97369.03;5031395;28;20214;-69
2021/08/01 05:40:05;;;;;;;4.60;3.53;;;;;;;30.05;45.45;97358.53;5030694;28;20209;-68
2021/08/01 05:42:34;;;;;;;5.73;3.27;;;;;;;29.72;44.13;97366.81;5032118;28;20206;-68
2021/08/01 05:45:01;;;;;;;6.20;3.70;;;;;;;29.22;47.32;97346.06;5031269;28;20230;-68
2021/08/01 05:47:28;;;;;;;8.83;4.50;;;;;;;29.76;46.41;97345.75;5031881;28;20202;-68
2021/08/01 05:49:56;;;;;;;8.20;4.23;;;;;;;30.24;43.92;97340.34;5031599;28;20302;-69
2021/08/01 05:52:24;;;;;;;5.73;3.50;;;;;;;29.54;45.70;97339.81;5032232;28;20221;-69
2021/08/01 05:54:54;;;;;;;4.63;3.60;;;;;;;29.78;45.02;97339.88;5026054;28;20230;-69
2021/08/01 05:57:21;;;;;;;5.70;4.30;;;;;;;30.38;45.51;97343.56;5030286;28;20206;-70
2021/08/01 05:59:48;;;;;;;4.57;3.53;;;;;;;30.18;46.20;97335.41;5031306;28;20210;-69
2021/08/01 06:02:16;;;;;;;4.43;3.00;;;;;;;30.69;45.29;97335.53;5031053;28;20203;-69
2021/08/01 06:04:43;;;;;;;8.00;3.53;;;;;;;29.54;45.31;97346.13;5032234;28;20223;-69
2021/08/01 06:07:10;;;;;;;5.87;3.20;;;;;;;29.15;46.67;97340.31;5031873;28;20199;-69
2021/08/01 06:09:43;;;;;;;3.20;2.90;;;;;;;30.35;45.61;97338.72;5031196;28;20225;-69
2021/08/01 06:12:11;;;;;;;5.90;4.00;;;;;;;30.54;44.06;97343.66;5026186;28;20261;-68
2021/08/01 06:14:39;;;;;;;5.43;3.50;;;;;;;29.80;44.91;97354.13;5030849;28;20235;-68
2021/08/01 06:17:06;;;;;;;5.57;3.87;;;;;;;29.79;46.20;97347.03;5031388;28;20209;-72
2021/08/01 06:19:33;;;;;;;5.87;3.50;;;;;;;30.09;46.80;97354.75;5036255;28;20712;-69
2021/08/01 06:22:01;;;;;;;5.47;3.30;;;;;;;30.52;43.37;97368.81;5031440;28;20204;-69
2021/08/01 06:24:28;;;;;;;3.20;2.90;;;;;;;30.52;43.91;97359.75;5031490;28;20564;-72
2021/08/01 06:26:57;;;;;;;6.17;3.23;;;;;;;30.49;43.01;97361.22;5031081;28;20204;-74
2021/08/01 06:29:24;;;;;;;5.67;3.70;;;;;;;30.19;45.87;97354.34;5031812;28;20199;-70
2021/08/01 06:31:53;;;;;;;5.63;3.40;;;;;;;29.59;46.41;97367.91;5015660;28;20681;-70
2021/08/01 06:34:20;;;;;;;4.93;3.10;;;;;;;30.09;46.08;97375.94;5031869;28;20228;-69
2021/08/01 06:36:47;;;;;;;7.47;3.73;;;;;;;30.07;46.26;97370.81;5031073;28;20209;-69
2021/08/01 06:39:15;;;;;;;4.47;3.23;;;;;;;29.50;47.63;97358.13;5031679;28;20282;-68
2021/08/01 06:41:42;;;;;;;4.73;3.40;;;;;;;29.71;45.36;97367.16;5030739;28;20231;-67
2021/08/01 06:44:11;;;;;;;4.77;3.00;;;;;;;29.96;44.37;97379.84;5030923;28;20200;-69
2021/08/01 06:46:38;;;;;;;5.50;3.43;;;;;;;30.50;45.48;97373.06;5030649;28;20241;-69
2021/08/01 06:49:05;;;;;;;3.37;2.93;;;;;;;29.01;49.15;97368.06;5024760;28;20208;-69
2021/08/01 06:51:32;;;;;;;4.83;3.00;;;;;;;29.70;45.61;97382.06;5030460;28;20552;-71
2021/08/01 06:54:00;;;;;;;3.57;2.80;;;;;;;29.93;45.49;97378.56;5031116;28;20224;-68
2021/08/01 06:56:27;;;;;;;4.57;3.30;;;;;;;30.37;43.64;97394.28;5030567;28;20232;-69
2021/08/01 06:58:54;;;;;;;4.50;3.23;;;;;;;29.76;46.27;97389.78;5029417;28;20234;-68
2021/08/01 07:01:23;;;;;;;4.70;3.00;;;;;;;29.02;47.26;97386.16;5031284;28;20196;-69
2021/08/01 07:03:50;;;;;;;5.10;3.13;;;;;;;28.69;48.62;97387.16;5027695;28;21669;-69
2021/08/01 07:06:17;;;;;;;5.17;3.10;;;;;;;28.93;48.20;97390.88;5031103;28;20306;-68
2021/08/01 07:08:45;;;;;;;5.93;2.93;;;;;;;29.93;44.02;97402.53;5031319;28;20212;-69
2021/08/01 07:11:12;;;;;;;4.20;3.17;;;;;;;28.70;49.59;97395.06;5024304;28;20658;-69
2021/08/01 07:13:41;;;;;;;4.33;3.10;;;;;;;29.53;45.87;97404.19;5029560;28;20221;-69
2021/08/01 07:16:08;;;;;;;3.67;2.50;;;;;;;30.64;42.22;97418.41;5020705;28;20594;-69
2021/08/01 07:18:36;;;;;;;4.60;2.77;;;;;;;29.82;44.47;97406.84;5031605;28;20203;-69
2021/08/01 07:21:04;;;;;;;3.47;2.80;;;;;;;30.53;43.03;97411.75;5031276;28;20203;-69
2021/08/01 07:23:31;;;;;;;5.47;3.00;;;;;;;30.45;43.55;97407.13;5029281;28;20204;-70
2021/08/01 07:25:58;;;;;;;4.37;3.03;;;;;;;30.41;43.25;97414.47;5034836;28;20222;-68
2021/08/01 07:28:26;;;;;;;3.00;2.60;;;;;;;30.77;41.86;97420.00;5031075;28;20205;-70
2021/08/01 07:30:53;;;;;;;3.97;3.23;;;;;;;30.88;41.72;97426.69;5034704;28;20824;-69
2021/08/01 07:33:21;;;;;;;3.93;3.10;;;;;;;29.62;44.49;97419.50;5035195;28;20205;-70
2021/08/01 07:35:49;;;;;;;4.73;3.00;;;;;;;29.56;45.07;97425.56;5033982;28;20224;-70
2021/08/01 07:38:17;;;;;;;6.17;3.00;;;;;;;29.01;46.79;97425.78;5030024;28;20205;-75
2021/08/01 07:40:44;;;;;;;4.23;3.20;;;;;;;29.04;46.02;97425.09;5034916;28;20208;-78
2021/08/01 07:43:11;;;;;;;4.73;3.20;;;;;;;29.61;46.00;97428.09;5042184;28;20203;-78
2021/08/01 07:45:39;;;;;;;4.73;3.00;;;;;;;29.38;46.78;97432.28;5035419;28;20230;-80
2021/08/01 07:48:07;;;;;;;5.73;3.53;;;;;;;28.97;49.06;97432.25;5031284;28;20198;-81
2021/08/01 07:50:35;;;;;;;9.40;3.67;;;;;;;29.21;48.95;97426.94;5035403;28;20204;-81
2021/08/01 07:53:04;;;;;;;5.60;3.77;;;;;;;27.78;53.58;97425.22;5045048;22;20696;-77
2021/08/01 07:55:31;;;;;;;6.33;3.30;;;;;;;29.14;46.71;97426.66;5012619;28;20236;-73
2021/08/01 07:57:59;;;;;;;6.57;3.60;;;;;;;29.34;46.25;97431.38;5011927;28;20215;-75
2021/08/01 08:00:26;;;;;;;5.53;3.80;;;;;;;28.35;49.81;97433.97;5026691;28;20217;-73
2021/08/01 08:02:54;;;;;;;5.87;3.27;;;;;;;28.59;48.63;97432.25;5021995;28;20222;-67
2021/08/01 08:05:21;;;;;;;5.27;3.53;;;;;;;29.34;49.77;97423.91;5021794;28;20209;-68
2021/08/01 08:07:48;;;;;;;7.30;3.70;;;;;;;29.77;44.99;97429.88;5031724;28;20208;-70
2021/08/01 08:10:17;;;;;;;4.97;3.37;;;;;;;30.06;44.88;97423.44;5027859;28;20255;-69
2021/08/01 08:12:45;;;;;;;5.13;3.93;;;;;;;30.23;44.69;97429.59;5032151;28;20706;-69
2021/08/01 08:15:13;;;;;;;5.13;3.23;;;;;;;29.76;47.38;97419.22;5016814;28;20232;-66
2021/08/01 08:17:40;;;;;;;5.57;3.70;;;;;;;28.25;53.20;97420.59;5026894;28;20204;-67
2021/08/01 08:20:09;;;;;;;6.63;3.80;;;;;;;30.33;48.64;97425.59;5017006;28;20660;-66
2021/08/01 08:22:37;;;;;;;4.70;3.73;;;;;;;30.05;45.57;97424.59;5019244;28;20225;-67
2021/08/01 08:25:05;;;;;;;5.40;3.80;;;;;;;29.04;48.93;97421.56;5013888;28;20219;-68
2021/08/01 08:27:34;;;;;;;6.03;3.63;;;;;;;29.08;49.62;97420.56;5013004;28;20203;-67
2021/08/01 08:30:01;;;;;;;4.77;3.23;;;;;;;29.46;45.81;97429.50;5019622;28;20208;-72
2021/08/01 08:32:30;;;;;;;4.47;3.37;;;;;;;29.93;43.88;97433.63;5017139;28;20245;-72
2021/08/01 08:34:57;;;;;;;4.87;2.90;;;;;;;30.52;43.39;97437.69;5012785;28;20234;-72
2021/08/01 08:37:25;;;;;;;5.23;3.07;;;;;;;29.65;47.22;97434.53;5009093;28;20210;-72
2021/08/01 08:39:52;;;;;;;4.30;3.33;;;;;;;29.25;48.99;97433.38;5018330;28;20204;-72
2021/08/01 08:42:20;;;;;;;4.90;3.27;;;;;;;29.62;47.38;97430.50;5019171;28;20700;-72
2021/08/01 08:44:49;;;;;;;5.53;3.33;;;;;;;29.45;48.61;97432.56;5030234;28;20208;-72
2021/08/01 08:47:18;;;;;;;7.10;3.43;;;;;;;30.07;45.45;97441.56;5019698;28;20215;-72
2021/08/01 08:49:48;;;;;;;5.70;3.33;;;;;;;30.56;44.60;97452.34;5021448;28;20213;-71
2021/08/01 08:52:16;;;;;;;4.87;3.07;;;;;;;30.33;45.71;97439.34;5025385;28;20210;-72
2021/08/01 08:54:46;;;;;;;3.53;3.00;;;;;;;29.77;47.29;97446.41;5026511;28;20244;-72
2021/08/01 08:57:20;;;;;;;3.50;3.20;;;;;;;29.58;47.90;97448.00;5023607;28;20231;-72
2021/08/01 08:59:49;;;;;;;4.30;2.90;;;;;;;28.24;51.78;97446.44;5025986;28;20209;-71
2021/08/01 09:02:16;;;;;;;4.53;2.83;;;;;;;28.63;50.69;97451.66;5022540;28;20274;-72
2021/08/01 09:04:46;;;;;;;4.93;3.37;;;;;;;29.52;49.60;97452.06;5017279;28;20661;-73
2021/08/01 09:07:13;;;;;;;5.57;3.60;;;;;;;28.88;51.01;97451.50;5022363;28;20672;-72
2021/08/01 09:09:40;;;;;;;6.30;3.43;;;;;;;30.20;45.54;97457.00;5021368;28;20689;-72
2021/08/01 09:12:08;;;;;;;4.87;3.60;;;;;;;29.84;47.85;97454.13;5019611;28;20690;-72
2021/08/01 09:14:36;;;;;;;3.80;2.83;;;;;;;30.06;46.80;97450.97;5017630;28;20724;-72
2021/08/01 09:17:05;;;;;;;4.10;3.40;;;;;;;29.98;48.67;97458.16;5015888;28;20214;-73
2021/08/01 09:19:34;;;;;;;6.40;3.40;;;;;;;30.40;44.55;97470.69;5011685;28;20581;-71
2021/08/01 09:22:19;;;;;;;4.70;2.50;;;;;;;32.26;39.67;97471.06;5009511;28;20656;-72
2021/08/01 09:24:48;;;;;;;5.43;2.70;;;;;;;32.17;39.60;97471.19;5009558;28;20217;-70
2021/08/01 09:27:32;;;;;;;4.17;2.60;;;;;;;31.52;41.45;97477.16;5007864;28;20287;-71
2021/08/01 09:30:00;;;;;;;6.43;3.00;;;;;;;32.51;40.21;97478.06;5009776;28;20211;-71
2021/08/01 09:32:32;;;;;;;4.30;3.13;;;;;;;32.74;39.09;97479.06;5010775;28;20302;-71
2021/08/01 09:34:59;;;;;;;4.00;2.70;;;;;;;33.07;37.88;97482.28;5008313;28;20222;-71
2021/08/01 09:37:34;;;;;;;7.97;3.00;;;;;;;31.28;40.95;97488.25;5011379;28;20217;-70
2021/08/01 09:40:10;;;;;;;4.83;2.70;;;;;;;32.10;39.63;97482.06;5008961;28;20336;-71
2021/08/01 09:42:42;;;;;;;6.77;2.53;;;;;;;32.32;39.30;97486.22;5009881;28;20247;-71
2021/08/01 09:45:17;;;;;;;8.00;3.10;;;;;;;32.17;41.29;97482.25;5009330;28;20207;-71
2021/08/01 09:47:47;;;;;;;4.90;3.10;;;;;;;31.78;41.21;97482.31;5012181;28;20207;-66
2021/08/01 09:50:16;;;;;;;5.10;2.90;;;;;;;32.24;38.42;97479.66;5014564;28;20238;-66
2021/08/01 09:52:44;;;;;;;8.43;2.90;;;;;;;31.98;41.13;97473.03;5008724;28;20626;-67
2021/08/01 09:55:18;;;;;;;4.70;2.67;;;;;;;31.33;41.80;97477.00;5011005;28;20234;-69
2021/08/01 09:57:53;;;;;;;5.03;3.17;;;;;;;31.46;43.42;97470.28;5011518;28;20217;-75
2021/08/01 10:00:23;;;;;;;5.87;3.20;;;;;;;32.03;40.53;97473.56;5025538;28;20260;-66
2021/08/01 10:02:51;;;;;;;6.33;3.30;;;;;;;31.12;43.98;97465.25;5012116;28;20237;-71
2021/08/01 10:05:20;;;;;;;4.57;2.67;;;;;;;32.20;40.16;97465.00;5017903;28;20238;-71
2021/08/01 10:07:49;;;;;;;3.37;2.47;;;;;;;33.68;36.22;97472.22;5012555;28;20215;-71
2021/08/01 10:10:20;;;;;;;7.03;3.20;;;;;;;32.93;38.69;97462.56;5016038;28;20229;-71
2021/08/01 10:12:48;;;;;;;3.70;2.70;;;;;;;33.10;37.98;97478.81;5018930;28;20231;-72
2021/08/01 10:15:17;;;;;;;3.53;2.30;;;;;;;33.55;36.55;97474.34;5019239;28;20226;-73
2021/08/01 10:17:45;;;;;;;4.20;2.30;;;;;;;33.15;36.11;97479.31;5017321;28;20231;-70
2021/08/01 10:20:14;;;;;;;3.90;2.60;;;;;;;33.78;35.93;97466.13;5012406;28;20204;-70
2021/08/01 10:22:44;;;;;;;4.47;2.73;;;;;;;33.35;37.18;97474.69;5011286;28;20237;-72
2021/08/01 10:25:12;;;;;;;4.40;2.70;;;;;;;32.30;40.06;97458.16;5013833;28;20216;-72
2021/08/01 10:27:45;;;;;;;3.53;2.13;;;;;;;33.28;35.86;97480.84;5007338;28;20684;-72
2021/08/01 10:30:18;;;;;;;4.53;2.17;;;;;;;33.41;36.43;97470.47;5011964;28;20208;-72
2021/08/01 10:32:46;;;;;;;2.77;2.40;;;;;;;33.18;35.32;97475.03;5014560;28;20226;-70
2021/08/01 10:35:18;;;;;;;3.27;2.20;;;;;;;32.76;36.67;97476.72;5010319;28;20220;-70
2021/08/01 10:37:49;;;;;;;2.33;1.97;;;;;;;32.36;37.23;97465.03;5011865;28;20748;-72
2021/08/01 10:40:19;;;;;;;3.43;2.30;;;;;;;32.83;36.28;97474.97;5014146;28;20209;-77
2021/08/01 10:42:55;;;;;;;2.53;1.93;;;;;;;31.99;38.60;97463.59;5019164;28;20237;-76
2021/08/01 10:45:22;;;;;;;3.60;2.40;;;;;;;32.66;36.95;97460.69;5010573;28;20214;-77
2021/08/01 10:47:51;;;;;;;3.07;2.13;;;;;;;33.97;32.93;97471.69;5011518;28;20212;-72
2021/08/01 10:50:23;;;;;;;4.10;1.87;;;;;;;31.99;38.76;97453.34;5018444;28;20213;-72
2021/08/01 10:52:50;;;;;;;5.23;1.93;;;;;;;31.71;38.37;97462.72;5006417;28;20229;-74
2021/08/01 10:55:24;;;;;;;2.90;1.83;;;;;;;33.10;37.31;97456.66;5017136;28;20224;-73
2021/08/01 10:58:11;;;;;;;2.07;1.80;;;;;;;34.49;32.38;97464.44;5017894;28;20203;-74
2021/08/01 11:01:01;;;;;;;2.93;1.93;;;;;;;35.17;31.28;97471.94;5018299;28;20691;-76
2021/08/01 11:03:29;;;;;;;6.13;2.20;;;;;;;35.65;30.57;97476.66;5013350;28;20229;-74
2021/08/01 11:05:57;;;;;;;3.83;2.10;;;;;;;33.59;32.13;97469.69;5014886;28;20666;-74
2021/08/01 11:08:25;;;;;;;4.07;2.10;;;;;;;33.42;32.41;97472.06;5018078;28;20217;-75
2021/08/01 11:11:14;;;;;;;2.87;2.10;;;;;;;32.30;35.53;97461.75;5020551;28;20201;-72
2021/08/01 11:13:46;;;;;;;3.60;2.17;;;;;;;33.91;33.75;97462.09;5005369;28;20230;-73
2021/08/01 11:16:15;;;;;;;5.40;2.43;;;;;;;34.11;31.76;97460.91;5023272;28;20226;-78
2021/08/01 11:18:44;;;;;;;4.90;2.10;;;;;;;33.65;34.00;97453.59;5017186;28;20204;-73
2021/08/01 11:21:14;;;;;;;3.72;2.13;;;;;;;34.42;32.16;97458.75;5016328;28;20214;-74
2021/08/01 11:24:12;;;;;;;5.97;2.10;;;;;;;35.02;29.88;97467.34;5014529;28;20229;-74
2021/08/01 11:27:07;;;;;;;4.67;2.50;;;;;;;35.21;30.28;97465.25;5018659;28;20207;-74
2021/08/01 11:30:05;;;;;;;4.77;2.20;;;;;;;33.48;33.68;97446.50;5020001;28;20210;-73
2021/08/01 11:32:51;;;;;;;3.58;2.47;;;;;;;34.30;32.97;97453.38;5021472;28;20346;-74
2021/08/01 11:35:21;;;;;;;5.72;2.25;;;;;;;35.48;30.83;97454.97;5026208;28;20288;-72
2021/08/01 11:38:08;;;;;;;5.53;2.45;;;;;;;34.73;31.07;97466.03;5021544;28;20578;-73
2021/08/01 11:40:47;;;;;;;4.57;2.70;;;;;;;35.11;30.95;97454.00;5017604;28;20202;-75
2021/08/01 11:43:14;;;;;;;2.80;2.30;;;;;;;33.52;32.34;97458.47;5022225;28;20236;-75